Anamosa, Iowa
Current Conditions -  °F | °C
As of 4:35 PM on Tuesday 21 Oct 2014 (Local Time) from KMXO Reporting Station
Clear Clear  
Wind Chill: 14°   Ceiling: Unl
Heat Index: 14°   Visibility: 10mi
Dew Point:   Wind: 5mph
Humidity: 48%   Direction: 80°E
Pressure: 30.17"   Gusts: 12mph
Location:  42.11°N, 91.28°W
Report Text: KMXO 212135Z AUTO 08004G10KT 10SM CLR 14/03 A3017 RMK AO2
Loading
Personal Weather Stations






























Interactive Weather Map
Tropical Storm Tracking
New forecast layout! Learn more

10-Day Weather Forecast

Advertisements
Track Severe Weather on mobile